createdAt,value
2018-07-20T00:02:03.589Z,7.80
2018-07-20T00:04:31.124Z,7.73
2018-07-20T00:06:58.612Z,8.23
2018-07-20T00:09:26.131Z,7.60
2018-07-20T00:11:53.675Z,7.57
2018-07-20T00:14:21.186Z,7.17
2018-07-20T00:16:48.728Z,7.10
2018-07-20T00:19:16.232Z,7.30
2018-07-20T00:21:43.732Z,7.40
2018-07-20T00:24:11.251Z,7.40
2018-07-20T00:26:38.781Z,6.57
2018-07-20T00:29:06.320Z,6.87
2018-07-20T00:31:33.808Z,7.00
2018-07-20T00:34:01.366Z,7.50
2018-07-20T00:36:28.869Z,7.53
2018-07-20T00:38:56.564Z,7.53
2018-07-20T00:41:24.064Z,7.00
2018-07-20T00:43:51.747Z,7.23
2018-07-20T00:46:19.256Z,7.30
2018-07-20T00:48:46.763Z,6.10
2018-07-20T00:51:14.279Z,6.90
2018-07-20T00:53:41.807Z,7.20
2018-07-20T00:56:09.299Z,6.90
2018-07-20T00:58:36.830Z,7.10
2018-07-20T01:01:04.351Z,6.00
2018-07-20T01:03:31.923Z,6.40
2018-07-20T01:05:59.391Z,6.57
2018-07-20T01:08:27.172Z,6.77
2018-07-20T01:10:54.677Z,6.63
2018-07-20T01:13:22.229Z,7.13
2018-07-20T01:15:49.728Z,7.50
2018-07-20T01:18:17.260Z,6.97
2018-07-20T01:20:44.765Z,6.80
2018-07-20T01:23:12.261Z,7.07
2018-07-20T01:25:39.800Z,6.90
2018-07-20T01:28:07.347Z,7.37
2018-07-20T01:30:34.878Z,7.40
2018-07-20T01:33:02.370Z,7.33
2018-07-20T01:35:29.891Z,5.90
2018-07-20T01:37:57.412Z,7.50
2018-07-20T01:40:24.936Z,6.90
2018-07-20T01:42:52.928Z,6.73
2018-07-20T01:45:20.451Z,6.67
2018-07-20T01:47:47.943Z,7.17
2018-07-20T01:50:15.471Z,6.53
2018-07-20T01:52:42.967Z,7.40
2018-07-20T01:55:10.479Z,6.57
2018-07-20T01:57:37.962Z,6.87
2018-07-20T02:00:05.515Z,7.33
2018-07-20T02:02:33.132Z,7.03
2018-07-20T02:05:00.691Z,6.87
2018-07-20T02:07:28.259Z,6.43
2018-07-20T02:09:55.776Z,6.90
2018-07-20T02:12:23.344Z,6.37
2018-07-20T02:14:50.872Z,6.73
2018-07-20T02:17:18.509Z,6.60
2018-07-20T02:19:46.024Z,6.37
2018-07-20T02:22:13.552Z,7.00
2018-07-20T02:24:41.060Z,6.90
2018-07-20T02:27:08.599Z,7.37
2018-07-20T02:29:36.135Z,7.27
2018-07-20T02:32:03.682Z,6.63
2018-07-20T02:34:31.181Z,6.83
2018-07-20T02:36:58.704Z,7.13
2018-07-20T02:39:26.199Z,6.60
2018-07-20T02:41:53.651Z,6.60
2018-07-20T02:44:21.614Z,7.00
2018-07-20T02:46:49.137Z,7.27
2018-07-20T02:49:16.616Z,7.07
2018-07-20T02:55:01.755Z,6.87
2018-07-20T02:57:29.267Z,6.83
2018-07-20T02:59:56.751Z,7.13
2018-07-20T03:02:24.268Z,7.07
2018-07-20T03:04:51.765Z,6.57
2018-07-20T03:07:19.280Z,7.17
2018-07-20T03:09:46.768Z,6.43
2018-07-20T03:12:14.225Z,7.30
2018-07-20T03:14:41.864Z,6.43
2018-07-20T03:17:09.383Z,6.43
2018-07-20T03:19:36.884Z,6.60
2018-07-20T03:22:04.435Z,7.03
2018-07-20T03:24:31.959Z,6.53
2018-07-20T03:26:59.524Z,7.00
2018-07-20T03:29:27.374Z,6.93
2018-07-20T03:31:54.888Z,6.87
2018-07-20T03:34:22.372Z,6.83
2018-07-20T03:36:49.888Z,7.27
2018-07-20T03:39:17.396Z,7.33
2018-07-20T03:41:44.908Z,8.27
2018-07-20T03:44:12.440Z,7.10
2018-07-20T03:46:39.977Z,7.07
2018-07-20T03:49:07.532Z,7.17
2018-07-20T03:51:35.021Z,6.93
2018-07-20T03:54:02.525Z,6.67
2018-07-20T03:56:30.049Z,6.20
2018-07-20T03:58:57.556Z,7.03
2018-07-20T04:01:25.064Z,6.60
2018-07-20T04:03:52.588Z,7.73
2018-07-20T04:06:20.075Z,7.37
2018-07-20T04:08:47.596Z,7.20
2018-07-20T04:11:15.092Z,7.97
2018-07-20T04:13:42.613Z,6.63
2018-07-20T04:16:10.114Z,6.30
2018-07-20T04:18:37.637Z,6.50
2018-07-20T04:21:05.149Z,6.03
2018-07-20T04:23:32.669Z,6.50
2018-07-20T04:26:00.222Z,6.00
2018-07-20T04:28:27.756Z,6.47
2018-07-20T04:30:55.248Z,7.00
2018-07-20T04:33:22.771Z,6.40
2018-07-20T04:35:50.268Z,7.17
2018-07-20T04:38:17.804Z,6.83
2018-07-20T04:40:45.348Z,7.10
2018-07-20T04:43:12.872Z,6.40
2018-07-20T04:45:40.368Z,6.90
2018-07-20T04:48:07.934Z,6.63
2018-07-20T04:50:35.437Z,6.47
2018-07-20T04:53:02.973Z,6.33
2018-07-20T04:55:30.502Z,6.57
2018-07-20T04:57:58.013Z,6.50
2018-07-20T05:00:25.520Z,6.67
2018-07-20T05:02:53.027Z,6.27
2018-07-20T05:05:20.515Z,5.97
2018-07-20T05:07:48.029Z,6.50
2018-07-20T05:10:15.559Z,6.80
2018-07-20T05:12:43.080Z,6.40
2018-07-20T05:15:10.616Z,6.17
2018-07-20T05:17:38.164Z,6.67
2018-07-20T05:20:05.869Z,6.10
2018-07-20T05:22:33.405Z,6.87
2018-07-20T05:25:00.900Z,6.10
2018-07-20T05:27:28.436Z,6.80
2018-07-20T05:29:55.948Z,6.57
2018-07-20T05:32:23.478Z,7.57
2018-07-20T05:34:50.988Z,6.63
2018-07-20T05:37:18.516Z,7.10
2018-07-20T05:39:46.012Z,6.90
2018-07-20T05:42:13.552Z,8.90
2018-07-20T05:44:41.051Z,6.50
2018-07-20T05:47:08.559Z,6.70
2018-07-20T05:49:36.073Z,7.17
2018-07-20T05:52:03.631Z,6.67
2018-07-20T05:54:31.136Z,7.20
2018-07-20T05:56:58.651Z,6.53
2018-07-20T05:59:26.175Z,6.73
2018-07-20T06:01:53.683Z,5.97
2018-07-20T06:04:21.877Z,6.40
2018-07-20T06:06:49.599Z,5.70
2018-07-20T06:09:17.168Z,6.57
2018-07-20T06:11:44.891Z,7.53
2018-07-20T06:14:12.480Z,7.60
2018-07-20T06:16:40.137Z,6.73
2018-07-20T06:19:07.700Z,7.27
2018-07-20T06:21:35.379Z,7.07
2018-07-20T06:24:03.010Z,7.47
2018-07-20T06:26:30.674Z,8.30
2018-07-20T06:28:58.235Z,8.47
2018-07-20T06:31:25.769Z,9.10
2018-07-20T06:33:53.349Z,7.23
2018-07-20T06:36:20.899Z,7.33
2018-07-20T06:38:48.446Z,8.20
2018-07-20T06:41:15.981Z,7.00
2018-07-20T06:43:43.544Z,7.00
2018-07-20T06:46:11.215Z,6.10
2018-07-20T06:48:38.762Z,7.30
2018-07-20T06:51:06.499Z,6.63
2018-07-20T06:53:34.063Z,7.10
2018-07-20T06:56:01.785Z,6.13
2018-07-20T06:58:29.390Z,5.07
2018-07-20T07:00:57.051Z,4.30
2018-07-20T07:03:24.629Z,4.00
2018-07-20T07:05:52.199Z,3.97
2018-07-20T07:08:19.812Z,4.03
2018-07-20T07:10:47.343Z,4.20
2018-07-20T07:13:14.881Z,4.27
2018-07-20T07:15:42.390Z,4.00
2018-07-20T07:18:09.907Z,4.13
2018-07-20T07:20:37.409Z,4.43
2018-07-20T07:23:04.938Z,4.03
2018-07-20T07:25:32.451Z,3.90
2018-07-20T07:27:59.964Z,4.00
2018-07-20T07:30:27.459Z,3.67
2018-07-20T07:32:54.960Z,4.20
2018-07-20T07:35:22.492Z,3.97
2018-07-20T07:37:50.088Z,3.50
2018-07-20T07:40:17.624Z,3.73
2018-07-20T07:42:45.130Z,3.63
2018-07-20T07:45:12.664Z,4.43
2018-07-20T07:47:40.181Z,3.93
2018-07-20T07:50:07.739Z,4.07
2018-07-20T07:52:35.277Z,3.77
2018-07-20T07:55:02.915Z,3.63
2018-07-20T07:57:30.419Z,3.83
2018-07-20T07:59:57.928Z,3.53
2018-07-20T08:02:25.435Z,4.00
2018-07-20T08:04:52.965Z,3.60
2018-07-20T08:07:20.455Z,3.70
2018-07-20T08:09:48.079Z,3.40
2018-07-20T08:12:15.536Z,3.60
2018-07-20T08:14:43.044Z,3.40
2018-07-20T08:17:10.635Z,3.47
2018-07-20T08:19:38.151Z,3.30
2018-07-20T08:22:05.683Z,3.60
2018-07-20T08:24:33.203Z,3.30
2018-07-20T08:27:00.768Z,3.40
2018-07-20T08:29:28.407Z,3.43
2018-07-20T08:31:56.000Z,3.87
2018-07-20T08:34:23.565Z,3.33
2018-07-20T08:36:51.232Z,3.83
2018-07-20T08:39:18.801Z,3.23
2018-07-20T08:41:46.380Z,3.17
2018-07-20T08:44:13.989Z,3.80
2018-07-20T08:46:41.586Z,3.20
2018-07-20T08:49:09.076Z,3.40
2018-07-20T08:51:36.616Z,3.30
2018-07-20T08:54:04.684Z,3.57
2018-07-20T08:56:32.248Z,3.47
2018-07-20T08:58:59.804Z,3.47
2018-07-20T09:01:27.267Z,3.10
2018-07-20T09:03:54.773Z,3.07
2018-07-20T09:06:22.284Z,3.33
2018-07-20T09:08:49.805Z,3.40
2018-07-20T09:11:17.407Z,3.30
2018-07-20T09:13:45.117Z,3.70
2018-07-20T09:16:12.455Z,3.30
2018-07-20T09:18:40.133Z,4.10
2018-07-20T09:21:07.848Z,3.77
2018-07-20T09:23:35.333Z,3.40
2018-07-20T09:26:02.906Z,3.37
2018-07-20T09:28:30.400Z,3.87
2018-07-20T09:30:57.920Z,3.30
2018-07-20T09:33:25.415Z,3.63
2018-07-20T09:35:52.935Z,4.20
2018-07-20T09:38:20.427Z,3.47
2018-07-20T09:40:47.955Z,3.43
2018-07-20T09:43:15.452Z,3.80
2018-07-20T09:45:42.967Z,3.40
2018-07-20T09:48:10.472Z,3.60
2018-07-20T09:50:38.000Z,3.77
2018-07-20T09:53:05.807Z,3.30
2018-07-20T09:55:33.328Z,3.80
2018-07-20T09:58:00.820Z,3.77
2018-07-20T10:00:34.003Z,3.73
2018-07-20T10:03:01.528Z,4.10
2018-07-20T10:05:29.048Z,3.77
2018-07-20T10:07:56.487Z,3.93
2018-07-20T10:10:24.029Z,3.77
2018-07-20T10:12:51.541Z,3.80
2018-07-20T10:15:19.004Z,3.83
2018-07-20T10:17:46.548Z,3.57
2018-07-20T10:20:14.075Z,3.53
2018-07-20T10:22:41.564Z,3.90
2018-07-20T10:25:09.108Z,3.53
2018-07-20T10:27:36.762Z,3.50
2018-07-20T10:30:04.722Z,3.80
2018-07-20T10:32:32.220Z,3.70
2018-07-20T10:34:59.742Z,3.70
2018-07-20T10:37:27.228Z,3.50
2018-07-20T10:39:54.752Z,3.40
2018-07-20T10:42:22.288Z,3.80
2018-07-20T10:44:49.849Z,3.77
2018-07-20T10:47:17.381Z,3.50
2018-07-20T10:49:45.232Z,3.47
2018-07-20T10:52:12.754Z,3.70
2018-07-20T10:54:40.312Z,3.70
2018-07-20T10:57:11.717Z,3.67
2018-07-20T10:59:39.243Z,3.77
2018-07-20T11:02:06.804Z,3.50
2018-07-20T11:04:34.329Z,3.60
2018-07-20T11:07:02.068Z,3.67
2018-07-20T11:09:29.577Z,3.50
2018-07-20T11:11:57.695Z,3.60
2018-07-20T11:14:25.292Z,3.80
2018-07-20T11:16:52.835Z,3.73
2018-07-20T11:19:20.341Z,3.90
2018-07-20T11:21:47.920Z,3.60
2018-07-20T11:24:15.421Z,3.57
2018-07-20T11:26:42.960Z,3.53
2018-07-20T11:29:10.456Z,4.00
2018-07-20T11:31:37.972Z,3.47
2018-07-20T11:34:05.496Z,3.70
2018-07-20T11:36:33.009Z,3.60
2018-07-20T11:39:00.499Z,4.00
2018-07-20T11:41:28.042Z,3.73
2018-07-20T11:43:55.544Z,3.60
2018-07-20T11:46:23.057Z,3.87
2018-07-20T11:48:50.541Z,3.57
2018-07-20T11:51:18.069Z,4.20
2018-07-20T11:53:45.592Z,3.70
2018-07-20T11:56:13.115Z,3.33
2018-07-20T11:58:40.606Z,3.60
2018-07-20T12:01:08.129Z,3.47
2018-07-20T12:03:35.624Z,3.43
2018-07-20T12:06:03.629Z,3.33
2018-07-20T12:08:31.124Z,3.47
2018-07-20T12:10:58.668Z,3.57
2018-07-20T12:13:26.154Z,3.27
2018-07-20T12:15:53.668Z,3.73
2018-07-20T12:18:21.172Z,4.10
2018-07-20T12:20:48.712Z,3.80
2018-07-20T12:23:16.209Z,3.60
2018-07-20T12:25:43.831Z,3.73
2018-07-20T12:28:11.326Z,3.80
2018-07-20T12:30:38.832Z,3.50
2018-07-20T12:33:06.677Z,3.67
2018-07-20T12:35:34.201Z,3.70
2018-07-20T12:38:01.716Z,3.60
2018-07-20T12:40:29.783Z,3.87
2018-07-20T12:42:57.292Z,3.80
2018-07-20T12:45:24.792Z,3.40
2018-07-20T12:47:52.309Z,3.50
2018-07-20T12:50:19.873Z,4.33
2018-07-20T12:52:47.368Z,3.90
2018-07-20T12:55:14.848Z,3.87
2018-07-20T12:57:42.381Z,3.43
2018-07-20T13:00:09.880Z,3.70
2018-07-20T13:02:37.389Z,3.37
2018-07-20T13:05:05.185Z,3.77
2018-07-20T13:07:32.704Z,4.00
2018-07-20T13:10:00.196Z,3.73
2018-07-20T13:12:27.857Z,3.47
2018-07-20T13:14:55.356Z,3.70
2018-07-20T13:17:22.884Z,3.50
2018-07-20T13:19:51.000Z,3.50
2018-07-20T13:22:18.570Z,3.50
2018-07-20T13:24:46.059Z,3.77
2018-07-20T13:27:13.764Z,3.97
2018-07-20T13:29:41.264Z,3.40
2018-07-20T13:32:08.797Z,3.40
2018-07-20T13:34:36.492Z,4.03
2018-07-20T13:37:04.003Z,3.90
2018-07-20T13:39:32.197Z,3.97
2018-07-20T13:41:59.713Z,3.90
2018-07-20T13:44:27.255Z,3.73
2018-07-20T13:46:54.780Z,3.80
2018-07-20T13:49:22.287Z,4.10
2018-07-20T13:51:49.874Z,3.60
2018-07-20T13:54:17.400Z,3.90
2018-07-20T13:56:45.010Z,3.50
2018-07-20T13:59:12.520Z,3.40
2018-07-20T14:01:40.103Z,3.53
2018-07-20T14:04:07.668Z,3.93
2018-07-20T14:06:35.276Z,3.57
2018-07-20T14:09:03.932Z,3.90
2018-07-20T14:11:31.493Z,3.70
2018-07-20T14:13:59.051Z,3.40
2018-07-20T14:16:26.584Z,3.73
2018-07-20T14:18:54.147Z,3.50
2018-07-20T14:21:21.749Z,3.73
2018-07-20T14:23:49.366Z,3.53
2018-07-20T14:26:16.889Z,3.80
2018-07-20T14:28:44.457Z,3.40
2018-07-20T14:31:12.040Z,3.93
2018-07-20T14:33:39.616Z,3.97
2018-07-20T14:36:07.128Z,3.60
2018-07-20T14:38:34.708Z,4.23
2018-07-20T14:41:02.228Z,3.90
2018-07-20T14:43:29.760Z,3.60
2018-07-20T14:45:57.288Z,3.87
2018-07-20T14:48:24.815Z,3.80
2018-07-20T14:50:52.327Z,3.50
2018-07-20T14:53:19.847Z,3.87
2018-07-20T14:55:47.441Z,3.50
2018-07-20T14:58:15.115Z,3.50
2018-07-20T15:00:42.603Z,3.97
2018-07-20T15:03:10.139Z,3.43
2018-07-20T15:05:37.780Z,3.60
2018-07-20T15:08:05.386Z,3.73
2018-07-20T15:10:33.019Z,3.60
2018-07-20T15:13:00.524Z,3.70
2018-07-20T15:15:28.048Z,3.67
2018-07-20T15:17:55.632Z,3.90
2018-07-20T15:20:23.084Z,3.83
2018-07-20T15:22:50.620Z,3.27
2018-07-20T15:25:18.141Z,4.03
2018-07-20T15:27:45.690Z,4.17
2018-07-20T15:30:13.339Z,4.00
2018-07-20T15:32:40.875Z,4.07
2018-07-20T15:35:08.388Z,4.20
2018-07-20T15:37:35.927Z,3.53
2018-07-20T15:40:03.580Z,4.30
2018-07-20T15:42:31.096Z,4.00
2018-07-20T15:44:58.677Z,4.10
2018-07-20T15:47:26.316Z,4.47
2018-07-20T15:49:53.791Z,3.87
2018-07-20T15:54:48.956Z,4.00
2018-07-20T15:57:16.534Z,4.27
2018-07-20T15:59:44.098Z,3.80
2018-07-20T16:02:11.627Z,4.30
2018-07-20T16:04:39.193Z,4.43
2018-07-20T16:07:06.719Z,4.47
2018-07-20T16:09:34.256Z,4.37
2018-07-20T16:12:01.788Z,4.10
2018-07-20T16:14:29.334Z,3.63
2018-07-20T16:16:56.907Z,3.73
2018-07-20T16:19:24.429Z,4.03
2018-07-20T16:21:51.932Z,5.70
2018-07-20T16:24:19.476Z,4.00
2018-07-20T16:26:47.055Z,4.00
2018-07-20T16:29:14.583Z,3.97
2018-07-20T16:31:42.200Z,4.30
2018-07-20T16:34:09.805Z,3.63
2018-07-20T16:36:37.403Z,4.10
2018-07-20T16:39:07.440Z,3.40
2018-07-20T16:41:35.021Z,4.10
2018-07-20T16:44:02.654Z,4.17
2018-07-20T16:46:30.237Z,3.70
2018-07-20T16:48:57.942Z,3.60
2018-07-20T16:51:25.751Z,3.20
2018-07-20T16:53:53.418Z,3.57
2018-07-20T16:56:20.988Z,4.00
2018-07-20T16:58:48.580Z,4.23
2018-07-20T17:01:16.101Z,4.37
2018-07-20T17:03:43.682Z,3.73
2018-07-20T17:06:11.287Z,3.70
2018-07-20T17:08:38.939Z,3.73
2018-07-20T17:11:06.960Z,3.63
2018-07-20T17:13:34.532Z,3.80
2018-07-20T17:16:02.111Z,4.13
2018-07-20T17:18:29.683Z,4.10
2018-07-20T17:20:57.208Z,3.67
2018-07-20T17:23:24.748Z,3.90
2018-07-20T17:25:52.323Z,3.67
2018-07-20T17:28:19.767Z,5.33
2018-07-20T17:30:47.285Z,3.83
2018-07-20T17:33:14.864Z,3.73
2018-07-20T17:35:42.598Z,3.80
2018-07-20T17:38:10.124Z,3.93
2018-07-20T17:40:37.656Z,4.10
2018-07-20T17:43:05.393Z,4.03
2018-07-20T17:45:32.925Z,4.00
2018-07-20T17:48:00.505Z,3.93
2018-07-20T17:50:28.232Z,4.17
2018-07-20T17:52:55.908Z,3.80
2018-07-20T17:55:23.620Z,3.97
2018-07-20T17:57:51.184Z,4.37
2018-07-20T18:00:18.908Z,4.17
2018-07-20T18:02:46.440Z,3.97
2018-07-20T18:05:14.003Z,5.27
2018-07-20T18:07:41.432Z,4.57
2018-07-20T18:10:08.960Z,4.40
2018-07-20T18:12:37.317Z,5.13
2018-07-20T18:15:05.136Z,5.37
2018-07-20T18:17:32.684Z,5.17
2018-07-20T18:20:00.225Z,5.10
2018-07-20T18:22:27.816Z,5.33
2018-07-20T18:24:55.336Z,5.73
2018-07-20T18:27:23.045Z,6.00
2018-07-20T18:29:50.455Z,5.33
2018-07-20T18:32:17.976Z,5.73
2018-07-20T18:34:45.512Z,5.77
2018-07-20T18:37:13.021Z,6.20
2018-07-20T18:39:40.601Z,5.43
2018-07-20T18:42:08.248Z,6.10
2018-07-20T18:44:35.731Z,5.40
2018-07-20T18:47:03.289Z,6.27
2018-07-20T18:49:30.839Z,6.30
2018-07-20T18:51:58.427Z,5.40
2018-07-20T18:54:25.948Z,6.30
2018-07-20T18:56:53.504Z,6.47
2018-07-20T18:59:21.021Z,6.47
2018-07-20T19:01:48.579Z,6.40
2018-07-20T19:04:16.170Z,5.67
2018-07-20T19:06:43.742Z,5.73
2018-07-20T19:09:11.886Z,5.67
2018-07-20T19:11:39.664Z,6.10
2018-07-20T19:14:08.432Z,6.10
2018-07-20T19:16:36.108Z,6.47
2018-07-20T19:19:03.692Z,6.10
2018-07-20T19:21:31.240Z,5.93
2018-07-20T19:23:58.892Z,5.50
2018-07-20T19:26:26.545Z,6.07
2018-07-20T19:28:54.044Z,6.10
2018-07-20T19:31:21.761Z,5.90
2018-07-20T19:33:49.282Z,6.13
2018-07-20T19:36:16.884Z,5.67
2018-07-20T19:38:44.412Z,5.70
2018-07-20T19:41:11.949Z,5.83
2018-07-20T19:43:39.466Z,5.90
2018-07-20T19:46:07.003Z,6.10
2018-07-20T19:48:34.502Z,5.63
2018-07-20T19:51:02.037Z,6.43
2018-07-20T19:53:29.563Z,5.73
2018-07-20T19:55:57.080Z,5.50
2018-07-20T19:58:24.642Z,6.10
2018-07-20T20:00:52.196Z,6.37
2018-07-20T20:03:19.861Z,6.30
2018-07-20T20:05:47.370Z,5.80
2018-07-20T20:08:14.944Z,5.87
2018-07-20T20:10:42.444Z,6.80
2018-07-20T20:13:09.991Z,6.60
2018-07-20T20:15:37.535Z,6.20
2018-07-20T20:18:05.560Z,6.70
2018-07-20T20:20:32.999Z,6.77
2018-07-20T20:23:00.535Z,6.60
2018-07-20T20:25:28.216Z,7.87
2018-07-20T20:27:55.761Z,8.00
2018-07-20T20:30:23.286Z,8.00
2018-07-20T20:32:50.863Z,6.03
2018-07-20T20:35:18.373Z,6.90
2018-07-20T20:37:45.903Z,5.87
2018-07-20T20:40:13.441Z,7.37
2018-07-20T20:42:40.967Z,7.67
2018-07-20T20:45:08.711Z,6.67
2018-07-20T20:47:36.284Z,6.30
2018-07-20T20:50:04.582Z,7.10
2018-07-20T20:52:32.103Z,8.30
2018-07-20T20:54:59.659Z,9.00
2018-07-20T20:57:27.182Z,7.00
2018-07-20T20:59:54.760Z,7.97
2018-07-20T21:02:22.282Z,6.80
2018-07-20T21:04:49.852Z,7.33
2018-07-20T21:07:17.426Z,6.53
2018-07-20T21:09:44.973Z,7.13
2018-07-20T21:12:12.655Z,7.87
2018-07-20T21:14:40.151Z,8.77
2018-07-20T21:17:07.939Z,9.00
2018-07-20T21:19:35.554Z,7.00
2018-07-20T21:22:03.284Z,7.20
2018-07-20T21:24:31.020Z,6.80
2018-07-20T21:26:58.600Z,7.63
2018-07-20T21:29:26.132Z,7.50
2018-07-20T21:31:53.683Z,7.27
2018-07-20T21:34:21.272Z,7.20
2018-07-20T21:36:48.864Z,8.63
2018-07-20T21:39:16.397Z,8.90
2018-07-20T21:41:43.915Z,8.67
2018-07-20T21:44:11.703Z,7.77
2018-07-20T21:46:39.432Z,7.37
2018-07-20T21:49:07.077Z,7.70
2018-07-20T21:51:34.607Z,8.37
2018-07-20T21:54:02.145Z,8.70
2018-07-20T21:56:29.776Z,9.87
2018-07-20T21:58:57.305Z,8.13
2018-07-20T22:01:24.828Z,7.60
2018-07-20T22:03:52.420Z,7.50
2018-07-20T22:06:19.974Z,7.00
2018-07-20T22:08:47.471Z,6.97
2018-07-20T22:11:15.020Z,6.83
2018-07-20T22:13:42.555Z,7.30
2018-07-20T22:16:10.069Z,9.60
2018-07-20T22:18:37.573Z,10.20
2018-07-20T22:21:05.239Z,9.80
2018-07-20T22:23:32.731Z,11.00
2018-07-20T22:26:00.271Z,10.17
2018-07-20T22:28:27.788Z,9.70
2018-07-20T22:30:55.296Z,8.10
2018-07-20T22:33:22.800Z,6.67
2018-07-20T22:35:50.336Z,7.77
2018-07-20T22:38:17.879Z,7.40
2018-07-20T22:40:45.403Z,8.07
2018-07-20T22:43:12.896Z,8.03
2018-07-20T22:45:40.432Z,7.90
2018-07-20T22:48:07.919Z,7.40
2018-07-20T22:50:35.492Z,8.63
2018-07-20T22:53:03.040Z,9.27
2018-07-20T22:55:30.572Z,9.03
2018-07-20T22:57:58.060Z,8.97
2018-07-20T23:00:25.597Z,9.07
2018-07-20T23:02:53.138Z,8.20
2018-07-20T23:05:20.644Z,9.27
2018-07-20T23:07:48.132Z,9.10
2018-07-20T23:10:15.668Z,9.07
2018-07-20T23:12:43.180Z,8.97
2018-07-20T23:15:10.688Z,8.83
2018-07-20T23:17:38.188Z,7.70
2018-07-20T23:20:05.752Z,7.50
2018-07-20T23:22:33.260Z,7.17
2018-07-20T23:25:00.780Z,8.20
2018-07-20T23:27:28.300Z,8.80
2018-07-20T23:29:55.816Z,8.90
2018-07-20T23:32:23.311Z,9.77
2018-07-20T23:34:50.856Z,7.80
2018-07-20T23:37:18.358Z,8.30
2018-07-20T23:39:45.871Z,8.17
2018-07-20T23:42:13.371Z,8.07
2018-07-20T23:44:40.823Z,8.80
2018-07-20T23:47:08.693Z,9.23
2018-07-20T23:49:36.207Z,9.17
2018-07-20T23:52:03.733Z,9.77
2018-07-20T23:54:31.249Z,10.17
2018-07-20T23:56:58.752Z,10.70
2018-07-20T23:59:26.242Z,10.37
